Airfield :
LOGIN :

Register | Disclaimer

   EN    FR    IT 

 










Legend :    VFR   Marginal VFR   IFR   Intensive IFR   Very Intensive IFR
Visi :
Ceiling :
>= 8 km
>= 3000ft
5 to 8 km
1000 to 3000 ft
1500m to 5 km
500 to 1000 ft
800 to 1500m
200 to 500 ft
< 800m
< 200 ft
Symbols :   Thunderstorms  Fog  Heavy snow  Heavy precipitations  Wind > 20 kt
SIGMETs :     Misc.  Thunderstorms  Icing  Turbulence  Mountain Waves  Volcanic Ashes






- Airport Elevation : 74 ft
- IATA code : EIN


EHEH - Eindhoven

CURRENT METAR :
  • 150225Z AUTO 05007KT 020V090 9999 OVC120 03/02 Q1001 BLU

EXPIRED METARs :
  • 150155Z AUTO 03008KT 010V070 9999 BKN140 OVC220 03/02 Q1001 BLU
  • 150125Z AUTO 05008KT 9999 OVC200 04/02 Q1002 BLU
  • 150055Z AUTO 03007KT 9999 OVC210 02/01 Q1002 BLU
  • 150025Z AUTO 04005KT 9999 OVC190 03/01 Q1002 BLU
  • 142355Z AUTO 05005KT 9999 FEW110 OVC190 04/02 Q1002 BLU

TAF TAF EHEH
Valid from the 15 at 00:00 until the 16 at 06:00 UTC


142352Z 1500/1606 05004KT CAVOK
BECMG 1504/1507 06010KT
PROB40
TEMPO 1504/1511 FEW008 BKN010
BECMG 1512/1515 13007KT BKN018
BECMG 1514/1516 SCT022
BECMG 1520/1522 VRB02KT
PROB40
TEMPO 1600/1604 4000 BR MIFG
BECMG 1603/1606 22007KT



MET'MAP, your aeronautical weather chart ! - Copyright ORBIFLY December 2007 - Disclaimer

ORBIFLY MET'MAP TEAM :

Programming & Development : Alexandra Zaïnal
Concept & Development : Baudouin d'Aumeries
Co-Development & Prog : Marc-Olivier Méhu
Technical & hardware support : Manuel Goepfert

Contact : metmap@orbifly.com




SOURCES & CREDITS :

   NOAA